createdAt,value
2023-05-09T00:02:41.384Z,79.51
2023-05-09T00:05:51.919Z,79.88
2023-05-09T00:09:00.546Z,79.57
2023-05-09T00:12:09.796Z,80.03
2023-05-09T00:15:19.078Z,80.06
2023-05-09T00:18:28.491Z,80.09
2023-05-09T00:21:38.528Z,79.99
2023-05-09T00:24:47.137Z,80.88
2023-05-09T00:27:55.776Z,80.56
2023-05-09T00:31:05.656Z,80.89
2023-05-09T00:34:13.882Z,81.03
2023-05-09T00:37:23.377Z,81.66
2023-05-09T00:40:32.484Z,81.26
2023-05-09T00:43:40.600Z,81.42
2023-05-09T00:46:49.752Z,81.06
2023-05-09T00:49:59.957Z,81.12
2023-05-09T00:53:10.434Z,80.66
2023-05-09T00:56:18.774Z,79.94
2023-05-09T00:59:27.772Z,81.12
2023-05-09T01:02:36.270Z,82.06
2023-05-09T01:05:55.822Z,82.81
2023-05-09T01:09:18.812Z,82.91
2023-05-09T01:12:37.839Z,82.66
2023-05-09T01:15:55.382Z,83.16
2023-05-09T01:19:29.923Z,83.15
2023-05-09T01:22:44.719Z,82.68
2023-05-09T01:26:05.568Z,82.75
2023-05-09T01:29:45.431Z,83.01
2023-05-09T01:33:00.594Z,83.59
2023-05-09T01:36:16.369Z,83.08
2023-05-09T01:39:28.075Z,83.66
2023-05-09T01:42:57.128Z,83.24
2023-05-09T01:46:08.825Z,83.53
2023-05-09T01:49:19.570Z,83.90
2023-05-09T01:52:28.700Z,83.66
2023-05-09T01:55:39.891Z,83.26
2023-05-09T01:58:50.149Z,83.88
2023-05-09T02:02:00.940Z,83.92
2023-05-09T02:05:12.839Z,84.01
2023-05-09T02:08:23.064Z,83.28
2023-05-09T02:11:31.666Z,84.15
2023-05-09T02:14:40.009Z,83.64
2023-05-09T02:17:49.975Z,83.81
2023-05-09T02:20:58.194Z,83.99
2023-05-09T02:24:07.669Z,84.32
2023-05-09T02:27:17.299Z,84.18
2023-05-09T02:30:31.919Z,84.39
2023-05-09T02:33:44.979Z,84.22
2023-05-09T02:36:53.402Z,84.54
2023-05-09T02:40:02.427Z,85.12
2023-05-09T02:43:11.270Z,84.15
2023-05-09T02:46:19.539Z,84.61
2023-05-09T02:49:32.574Z,84.68
2023-05-09T02:52:42.278Z,85.34
2023-05-09T02:55:52.101Z,84.88
2023-05-09T02:59:00.356Z,85.10
2023-05-09T03:02:08.716Z,84.83
2023-05-09T03:05:18.835Z,84.08
2023-05-09T03:08:28.527Z,83.98
2023-05-09T03:11:37.683Z,84.39
2023-05-09T03:14:45.875Z,84.67
2023-05-09T03:17:54.085Z,83.60
2023-05-09T03:21:05.421Z,83.60
2023-05-09T03:24:14.281Z,83.28
2023-05-09T03:27:22.482Z,83.23
2023-05-09T03:30:31.893Z,82.09
2023-05-09T03:33:40.132Z,81.30
2023-05-09T03:36:51.441Z,80.80
2023-05-09T03:39:59.876Z,82.57
2023-05-09T03:43:18.988Z,83.35
2023-05-09T03:46:27.291Z,83.38
2023-05-09T03:49:36.609Z,84.20
2023-05-09T03:52:46.587Z,84.96
2023-05-09T03:55:57.870Z,84.47
2023-05-09T03:59:07.967Z,84.47
2023-05-09T04:02:16.785Z,83.58
2023-05-09T04:05:27.030Z,83.74
2023-05-09T04:08:37.724Z,82.53
2023-05-09T04:11:46.735Z,81.41
2023-05-09T04:14:58.240Z,81.73
2023-05-09T04:18:07.866Z,83.03
2023-05-09T04:21:16.896Z,83.50
2023-05-09T04:24:29.932Z,83.47
2023-05-09T04:27:38.249Z,83.54
2023-05-09T04:30:46.793Z,83.24
2023-05-09T04:33:55.497Z,82.66
2023-05-09T04:37:04.100Z,82.84
2023-05-09T04:40:14.776Z,82.33
2023-05-09T04:43:31.371Z,82.04
2023-05-09T04:46:40.248Z,80.33
2023-05-09T04:49:48.947Z,80.39
2023-05-09T04:52:57.954Z,80.12
2023-05-09T04:56:08.178Z,80.15
2023-05-09T04:59:17.660Z,79.37
2023-05-09T05:02:26.834Z,79.90
2023-05-09T05:05:37.524Z,80.16
2023-05-09T05:08:47.300Z,78.48
2023-05-09T05:12:01.716Z,78.83
2023-05-09T05:15:13.806Z,77.41
2023-05-09T05:18:24.411Z,77.77
2023-05-09T05:21:32.783Z,77.50
2023-05-09T05:24:41.730Z,76.44
2023-05-09T05:27:52.599Z,76.97
2023-05-09T05:31:01.147Z,76.52
2023-05-09T05:34:10.064Z,76.90
2023-05-09T05:37:18.979Z,75.74
2023-05-09T05:40:27.304Z,75.16
2023-05-09T05:43:38.557Z,74.55
2023-05-09T05:46:47.240Z,73.76
2023-05-09T05:49:55.667Z,72.61
2023-05-09T05:53:04.195Z,69.84
2023-05-09T05:56:12.377Z,66.75
2023-05-09T05:59:21.973Z,64.91
2023-05-09T06:02:31.345Z,63.03
2023-05-09T06:05:42.374Z,60.75
2023-05-09T06:08:51.220Z,57.02
2023-05-09T06:11:59.885Z,51.63
2023-05-09T06:15:10.656Z,55.37
2023-05-09T06:18:23.155Z,52.61
2023-05-09T06:21:31.752Z,53.09
2023-05-09T06:24:40.344Z,48.32
2023-05-09T06:27:48.924Z,42.80
2023-05-09T06:30:59.063Z,41.66
2023-05-09T06:34:07.655Z,40.38
2023-05-09T06:37:15.757Z,38.64
2023-05-09T06:40:24.019Z,36.21
2023-05-09T06:43:32.191Z,36.52
2023-05-09T06:46:41.834Z,35.54
2023-05-09T06:49:50.432Z,35.15
2023-05-09T06:52:58.882Z,35.99
2023-05-09T06:56:07.326Z,35.41
2023-05-09T06:59:16.595Z,35.13
2023-05-09T07:02:26.197Z,36.13
2023-05-09T07:05:34.615Z,36.39
2023-05-09T07:08:42.819Z,35.53
2023-05-09T07:11:51.184Z,36.57
2023-05-09T07:14:59.338Z,35.94
2023-05-09T07:18:09.302Z,36.17
2023-05-09T07:21:17.560Z,33.88
2023-05-09T07:24:25.855Z,34.39
2023-05-09T07:27:34.049Z,34.91
2023-05-09T07:30:43.740Z,36.38
2023-05-09T07:33:53.254Z,37.59
2023-05-09T07:37:01.338Z,37.20
2023-05-09T07:40:11.414Z,36.11
2023-05-09T07:43:19.838Z,37.47
2023-05-09T07:46:28.294Z,38.94
2023-05-09T07:49:37.858Z,41.67
2023-05-09T07:52:46.252Z,45.27
2023-05-09T07:55:54.570Z,44.73
2023-05-09T07:59:03.355Z,44.29
2023-05-09T08:02:11.517Z,44.38
2023-05-09T08:05:21.388Z,40.20
2023-05-09T08:08:29.463Z,40.86
2023-05-09T08:11:38.100Z,39.60
2023-05-09T08:14:46.895Z,36.71
2023-05-09T08:17:55.066Z,39.47
2023-05-09T08:21:05.292Z,45.94
2023-05-09T08:24:13.391Z,49.13
2023-05-09T08:27:21.467Z,45.52
2023-05-09T08:30:29.787Z,46.92
2023-05-09T08:33:39.383Z,48.43
2023-05-09T08:36:50.873Z,46.09
2023-05-09T08:39:58.993Z,47.40
2023-05-09T08:43:09.173Z,46.24
2023-05-09T08:46:19.295Z,43.80
2023-05-09T08:49:28.919Z,41.90
2023-05-09T08:52:38.951Z,41.58
2023-05-09T08:55:47.579Z,41.38
2023-05-09T08:58:56.731Z,45.02
2023-05-09T09:02:08.098Z,50.81
2023-05-09T09:05:39.410Z,46.54
2023-05-09T09:08:48.886Z,44.47
2023-05-09T09:11:57.204Z,43.55
2023-05-09T09:15:10.342Z,46.16
2023-05-09T09:18:25.255Z,45.17
2023-05-09T09:21:34.509Z,46.08
2023-05-09T09:24:44.339Z,48.55
2023-05-09T09:27:52.467Z,47.66
2023-05-09T09:31:00.556Z,48.02
2023-05-09T09:34:08.671Z,46.60
2023-05-09T09:37:24.130Z,45.52
2023-05-09T09:40:33.695Z,46.40
2023-05-09T09:43:47.544Z,43.94
2023-05-09T09:46:56.916Z,44.55
2023-05-09T09:50:14.202Z,44.71
2023-05-09T09:53:23.871Z,45.60
2023-05-09T09:56:46.055Z,49.14
2023-05-09T10:00:00.488Z,50.13
2023-05-09T10:03:17.122Z,47.25
2023-05-09T10:06:25.443Z,49.33
2023-05-09T10:09:37.849Z,49.35
2023-05-09T10:12:48.624Z,48.08
2023-05-09T10:15:59.045Z,46.43
2023-05-09T10:19:07.959Z,45.81
2023-05-09T10:22:19.300Z,45.37
2023-05-09T10:25:39.437Z,46.32
2023-05-09T10:28:54.464Z,45.81
2023-05-09T10:32:13.385Z,46.10
2023-05-09T10:35:28.873Z,46.79
2023-05-09T10:38:38.576Z,47.97
2023-05-09T10:41:49.991Z,47.06
2023-05-09T10:45:01.474Z,46.82
2023-05-09T10:48:10.796Z,47.23
2023-05-09T10:51:19.339Z,45.96
2023-05-09T10:54:33.302Z,44.96
2023-05-09T10:57:41.414Z,44.87
2023-05-09T11:00:55.290Z,45.45
2023-05-09T11:04:12.752Z,44.68
2023-05-09T11:07:26.291Z,44.52
2023-05-09T11:10:44.171Z,44.72
2023-05-09T11:13:59.445Z,46.31
2023-05-09T11:17:13.317Z,43.68
2023-05-09T11:20:29.912Z,45.35
2023-05-09T11:23:39.407Z,45.34
2023-05-09T11:26:49.756Z,44.87
2023-05-09T11:30:00.276Z,45.86
2023-05-09T11:33:24.125Z,47.12
2023-05-09T11:36:33.401Z,47.25
2023-05-09T11:39:59.194Z,48.41
2023-05-09T11:43:09.309Z,48.38
2023-05-09T11:46:17.414Z,48.20
2023-05-09T11:49:30.798Z,46.16
2023-05-09T11:52:41.390Z,46.37
2023-05-09T11:55:50.526Z,45.92
2023-05-09T11:59:00.210Z,45.66
2023-05-09T12:02:10.096Z,46.93
2023-05-09T12:05:21.591Z,45.12
2023-05-09T12:08:30.184Z,44.10
2023-05-09T12:11:38.661Z,42.83
2023-05-09T12:14:47.275Z,41.70
2023-05-09T12:18:06.629Z,42.35
2023-05-09T12:21:16.814Z,42.60
2023-05-09T12:24:26.643Z,42.58
2023-05-09T12:27:36.313Z,41.93
2023-05-09T12:30:46.147Z,42.80
2023-05-09T12:33:54.723Z,43.66
2023-05-09T12:37:05.785Z,42.61
2023-05-09T12:40:15.715Z,44.25
2023-05-09T12:43:24.384Z,43.71
2023-05-09T12:46:32.903Z,41.65
2023-05-09T12:49:41.651Z,40.26
2023-05-09T12:53:02.614Z,40.55
2023-05-09T12:56:16.489Z,41.85
2023-05-09T12:59:25.992Z,42.70
2023-05-09T13:02:38.550Z,43.26
2023-05-09T13:05:56.146Z,41.74
2023-05-09T13:09:08.097Z,39.99
2023-05-09T13:15:26.789Z,39.42
2023-05-09T13:18:35.409Z,39.85
2023-05-09T13:21:44.105Z,38.90
2023-05-09T13:24:53.925Z,39.70
2023-05-09T13:28:03.679Z,42.32
2023-05-09T13:31:13.208Z,42.39
2023-05-09T13:34:21.689Z,41.70
2023-05-09T13:37:30.153Z,41.78
2023-05-09T13:40:40.318Z,42.85
2023-05-09T13:43:49.093Z,42.81
2023-05-09T13:47:00.277Z,43.98
2023-05-09T13:50:10.448Z,42.55
2023-05-09T13:53:19.523Z,42.19
2023-05-09T13:56:29.823Z,42.47
2023-05-09T13:59:38.728Z,43.62
2023-05-09T14:02:47.355Z,42.69
2023-05-09T14:05:56.072Z,44.10
2023-05-09T14:09:04.721Z,44.40
2023-05-09T14:12:15.548Z,43.04
2023-05-09T14:15:24.442Z,42.03
2023-05-09T14:18:33.089Z,41.66
2023-05-09T14:21:42.632Z,42.79
2023-05-09T14:24:51.381Z,43.00
2023-05-09T14:28:01.193Z,42.59
2023-05-09T14:31:09.743Z,42.05
2023-05-09T14:34:18.388Z,42.21
2023-05-09T14:37:27.054Z,43.28
2023-05-09T14:40:35.731Z,42.77
2023-05-09T14:43:45.722Z,42.76
2023-05-09T14:46:54.392Z,43.35
2023-05-09T14:50:03.750Z,42.20
2023-05-09T14:53:12.670Z,42.98
2023-05-09T14:56:22.172Z,43.47
2023-05-09T14:59:32.137Z,43.09
2023-05-09T15:02:42.033Z,42.33
2023-05-09T15:05:51.812Z,42.65
2023-05-09T15:09:00.809Z,43.05
2023-05-09T15:12:09.500Z,43.30
2023-05-09T15:15:21.260Z,44.10
2023-05-09T15:18:30.092Z,44.23
2023-05-09T15:21:38.668Z,43.77
2023-05-09T15:24:47.204Z,44.27
2023-05-09T15:27:56.655Z,43.67
2023-05-09T15:31:06.970Z,44.39
2023-05-09T15:34:15.638Z,44.88
2023-05-09T15:37:24.217Z,45.21
2023-05-09T15:40:32.779Z,44.56
2023-05-09T15:43:41.304Z,45.89
2023-05-09T15:46:51.997Z,45.49
2023-05-09T15:50:00.558Z,46.08
2023-05-09T15:53:09.594Z,44.88
2023-05-09T15:56:18.693Z,45.71
2023-05-09T15:59:27.886Z,46.52
2023-05-09T16:02:38.670Z,46.80
2023-05-09T16:05:47.843Z,47.36
2023-05-09T16:08:57.227Z,47.44
2023-05-09T16:12:07.465Z,46.15
2023-05-09T16:15:16.332Z,46.42
2023-05-09T16:18:26.710Z,46.83
2023-05-09T16:21:37.537Z,47.24
2023-05-09T16:24:47.652Z,47.83
2023-05-09T16:27:56.440Z,48.30
2023-05-09T16:31:05.545Z,48.51
2023-05-09T16:34:15.538Z,49.53
2023-05-09T16:37:24.392Z,49.84
2023-05-09T16:40:34.085Z,50.17
2023-05-09T16:43:43.155Z,49.94
2023-05-09T16:46:51.989Z,50.53
2023-05-09T16:50:02.405Z,51.21
2023-05-09T16:53:11.055Z,51.39
2023-05-09T16:56:19.740Z,51.67
2023-05-09T16:59:28.791Z,52.75
2023-05-09T17:02:42.674Z,53.38
2023-05-09T17:05:52.612Z,53.27
2023-05-09T17:09:01.443Z,53.46
2023-05-09T17:12:14.913Z,53.76
2023-05-09T17:15:23.799Z,54.39
2023-05-09T17:18:37.787Z,54.46
2023-05-09T17:21:48.556Z,54.48
2023-05-09T17:24:57.245Z,54.34
2023-05-09T17:28:05.988Z,54.30
2023-05-09T17:31:15.104Z,54.36
2023-05-09T17:34:24.007Z,55.12
2023-05-09T17:37:34.006Z,55.13
2023-05-09T17:40:43.264Z,55.78
2023-05-09T17:43:56.402Z,55.43
2023-05-09T17:47:04.958Z,55.26
2023-05-09T17:50:16.956Z,55.07
2023-05-09T17:53:27.250Z,55.07
2023-05-09T17:56:36.182Z,55.43
2023-05-09T17:59:46.718Z,54.88
2023-05-09T18:03:00.718Z,55.04
2023-05-09T18:06:10.227Z,55.34
2023-05-09T18:09:21.330Z,54.79
2023-05-09T18:12:31.135Z,55.46
2023-05-09T18:15:41.395Z,56.35
2023-05-09T18:18:50.180Z,56.50
2023-05-09T18:21:59.167Z,56.88
2023-05-09T18:25:11.501Z,57.42
2023-05-09T18:28:24.743Z,57.07
2023-05-09T18:31:38.752Z,57.36
2023-05-09T18:34:48.428Z,57.47
2023-05-09T18:37:57.224Z,58.22
2023-05-09T18:41:09.171Z,58.70
2023-05-09T18:44:18.107Z,59.07
2023-05-09T18:47:27.710Z,59.25
2023-05-09T18:50:37.780Z,58.41
2023-05-09T18:53:47.690Z,58.72
2023-05-09T18:56:58.255Z,58.94
2023-05-09T19:00:09.151Z,59.13
2023-05-09T19:03:19.281Z,59.26
2023-05-09T19:06:29.107Z,59.49
2023-05-09T19:09:37.810Z,59.86
2023-05-09T19:12:49.226Z,59.35
2023-05-09T19:15:58.513Z,59.38
2023-05-09T19:19:08.042Z,59.91
2023-05-09T19:22:16.889Z,59.74
2023-05-09T19:25:26.272Z,60.07
2023-05-09T19:28:36.594Z,60.64
2023-05-09T19:31:45.365Z,60.89
2023-05-09T19:34:54.226Z,60.87
2023-05-09T19:38:02.873Z,60.87
2023-05-09T19:41:12.725Z,61.00
2023-05-09T19:44:24.894Z,61.26
2023-05-09T19:47:33.681Z,60.84
2023-05-09T19:50:42.639Z,61.51
2023-05-09T19:53:51.443Z,61.70
2023-05-09T19:57:00.059Z,62.18
2023-05-09T20:00:11.963Z,62.60
2023-05-09T20:03:21.616Z,61.66
2023-05-09T20:06:30.845Z,62.37
2023-05-09T20:09:39.656Z,63.19
2023-05-09T20:12:48.444Z,63.12
2023-05-09T20:15:59.176Z,62.97
2023-05-09T20:19:08.223Z,61.95
2023-05-09T20:22:16.753Z,61.73
2023-05-09T20:25:25.640Z,61.34
2023-05-09T20:28:34.246Z,61.05
2023-05-09T20:31:44.479Z,61.72
2023-05-09T20:34:53.095Z,61.71
2023-05-09T20:38:01.630Z,61.33
2023-05-09T20:41:10.274Z,62.21
2023-05-09T20:44:19.315Z,61.80
2023-05-09T20:47:29.353Z,61.98
2023-05-09T20:50:38.065Z,62.49
2023-05-09T20:53:46.599Z,61.38
2023-05-09T20:56:55.320Z,61.51
2023-05-09T21:00:04.384Z,63.12
2023-05-09T21:03:14.465Z,62.41
2023-05-09T21:06:23.242Z,63.26
2023-05-09T21:09:31.751Z,63.94
2023-05-09T21:12:40.381Z,63.78
2023-05-09T21:15:50.936Z,66.42
2023-05-09T21:19:04.804Z,68.98
2023-05-09T21:22:13.430Z,72.70
2023-05-09T21:25:21.995Z,75.62
2023-05-09T21:28:31.408Z,77.96
2023-05-09T21:31:40.204Z,79.00
2023-05-09T21:34:50.657Z,79.58
2023-05-09T21:37:59.190Z,80.45
2023-05-09T21:41:08.187Z,81.24
2023-05-09T21:44:16.923Z,82.17
2023-05-09T21:47:25.747Z,82.97
2023-05-09T21:50:36.149Z,83.71
2023-05-09T21:53:44.794Z,84.05
2023-05-09T21:56:53.336Z,85.11
2023-05-09T22:00:02.811Z,84.57
2023-05-09T22:03:21.592Z,85.10
2023-05-09T22:06:32.529Z,84.03
2023-05-09T22:09:41.501Z,85.08
2023-05-09T22:12:49.987Z,85.51
2023-05-09T22:15:58.543Z,85.23
2023-05-09T22:19:07.130Z,85.33
2023-05-09T22:22:17.198Z,85.61
2023-05-09T22:25:26.123Z,85.16
2023-05-09T22:28:34.583Z,85.60
2023-05-09T22:31:44.266Z,85.65
2023-05-09T22:34:54.023Z,86.32
2023-05-09T22:38:03.907Z,86.71
2023-05-09T22:41:12.563Z,86.23
2023-05-09T22:44:21.009Z,86.31
2023-05-09T22:47:29.497Z,85.81
2023-05-09T22:50:37.980Z,85.35
2023-05-09T22:53:47.865Z,85.98
2023-05-09T22:56:56.309Z,85.68
2023-05-09T23:00:06.090Z,86.43
2023-05-09T23:03:14.684Z,86.27
2023-05-09T23:06:23.302Z,85.57
2023-05-09T23:09:33.251Z,85.41
2023-05-09T23:12:41.776Z,85.11
2023-05-09T23:15:50.274Z,85.73
2023-05-09T23:18:58.785Z,86.71
2023-05-09T23:22:07.559Z,85.93
2023-05-09T23:25:17.344Z,87.02
2023-05-09T23:28:26.172Z,87.15
2023-05-09T23:31:34.730Z,86.38
2023-05-09T23:34:43.268Z,86.26
2023-05-09T23:37:51.725Z,85.86
2023-05-09T23:41:01.601Z,87.00
2023-05-09T23:44:10.063Z,86.74
2023-05-09T23:47:18.511Z,87.38
2023-05-09T23:50:26.974Z,86.73
2023-05-09T23:53:35.796Z,86.76
2023-05-09T23:56:47.695Z,86.94
2023-05-09T23:59:56.180Z,87.21
